createdAt,value
2022-08-17T00:01:52.107Z,16.55
2022-08-17T00:04:22.495Z,14.32
2022-08-17T00:06:53.550Z,15.60
2022-08-17T00:09:24.126Z,14.93
2022-08-17T00:12:41.807Z,14.48
2022-08-17T00:14:42.839Z,14.55
2022-08-17T00:17:12.265Z,14.77
2022-08-17T00:19:41.974Z,14.77
2022-08-17T00:22:34.061Z,14.75
2022-08-17T00:25:02.435Z,15.50
2022-08-17T00:27:32.173Z,15.38
2022-08-17T00:30:01.768Z,16.23
2022-08-17T00:33:14.210Z,15.32
2022-08-17T00:35:28.677Z,14.75
2022-08-17T00:37:58.127Z,15.20
2022-08-17T00:40:40.592Z,15.85
2022-08-17T00:43:19.966Z,15.40
2022-08-17T00:45:50.410Z,14.18
2022-08-17T00:48:26.208Z,14.20
2022-08-17T00:51:08.870Z,13.07
2022-08-17T00:53:43.429Z,13.18
2022-08-17T00:56:18.706Z,14.63
2022-08-17T00:58:48.928Z,15.05
2022-08-17T01:01:21.973Z,14.93
2022-08-17T01:03:53.328Z,14.32
2022-08-17T01:06:28.608Z,14.07
2022-08-17T01:08:59.688Z,14.52
2022-08-17T01:11:32.646Z,15.23
2022-08-17T01:14:01.780Z,15.20
2022-08-17T01:16:33.209Z,14.68
2022-08-17T01:19:05.217Z,14.43
2022-08-17T01:21:47.475Z,14.13
2022-08-17T01:24:19.068Z,13.65
2022-08-17T01:26:49.678Z,14.65
2022-08-17T01:29:20.296Z,14.43
2022-08-17T01:31:54.016Z,14.73
2022-08-17T01:34:25.197Z,15.25
2022-08-17T01:37:06.798Z,15.05
2022-08-17T01:39:42.121Z,14.90
2022-08-17T01:42:17.868Z,13.90
2022-08-17T01:44:47.339Z,13.52
2022-08-17T01:47:16.817Z,14.77
2022-08-17T01:49:46.926Z,14.85
2022-08-17T01:52:17.323Z,14.35
2022-08-17T01:54:50.487Z,14.52
2022-08-17T01:57:19.897Z,14.38
2022-08-17T01:59:49.083Z,14.43
2022-08-17T02:02:30.833Z,13.63
2022-08-17T02:05:01.155Z,13.90
2022-08-17T02:07:30.556Z,13.38
2022-08-17T02:10:01.506Z,14.63
2022-08-17T02:12:38.324Z,13.35
2022-08-17T02:15:17.277Z,13.73
2022-08-17T02:17:46.529Z,14.63
2022-08-17T02:20:16.646Z,14.43
2022-08-17T02:23:09.098Z,14.40
2022-08-17T02:25:41.537Z,14.95
2022-08-17T02:28:11.516Z,14.27
2022-08-17T02:31:01.487Z,14.40
2022-08-17T02:33:41.555Z,14.57
2022-08-17T02:36:14.287Z,14.07
2022-08-17T02:38:44.217Z,14.07
2022-08-17T02:41:15.019Z,13.50
2022-08-17T02:43:44.467Z,14.40
2022-08-17T02:46:14.208Z,14.43
2022-08-17T02:48:43.567Z,13.38
2022-08-17T02:51:13.106Z,14.13
2022-08-17T02:53:42.586Z,13.57
2022-08-17T02:56:11.908Z,13.60
2022-08-17T02:58:42.715Z,14.38
2022-08-17T03:01:12.924Z,15.57
2022-08-17T03:03:42.596Z,14.75
2022-08-17T03:06:12.367Z,15.68
2022-08-17T03:08:41.599Z,15.77
2022-08-17T03:11:10.796Z,14.73
2022-08-17T03:13:41.758Z,15.15
2022-08-17T03:16:11.148Z,15.05
2022-08-17T03:18:40.357Z,15.45
2022-08-17T03:21:09.945Z,15.70
2022-08-17T03:23:41.499Z,14.20
2022-08-17T03:26:12.362Z,14.13
2022-08-17T03:28:46.451Z,15.70
2022-08-17T03:31:15.736Z,14.60
2022-08-17T03:33:44.898Z,15.60
2022-08-17T03:36:14.198Z,15.70
2022-08-17T03:38:43.330Z,16.52
2022-08-17T03:41:14.369Z,16.05
2022-08-17T03:43:43.558Z,15.63
2022-08-17T03:46:35.043Z,15.52
2022-08-17T03:49:24.831Z,14.90
2022-08-17T03:52:12.009Z,14.68
2022-08-17T03:54:58.767Z,15.10
2022-08-17T03:57:29.403Z,16.60
2022-08-17T04:00:00.031Z,16.30
2022-08-17T04:02:32.548Z,14.80
2022-08-17T04:05:02.264Z,16.50
2022-08-17T04:07:32.877Z,15.25
2022-08-17T04:10:02.618Z,15.75
2022-08-17T04:12:45.812Z,15.38
2022-08-17T04:15:15.837Z,15.00
2022-08-17T04:17:46.669Z,13.73
2022-08-17T04:20:17.886Z,14.35
2022-08-17T04:22:58.557Z,14.20
2022-08-17T04:25:28.734Z,14.40
2022-08-17T04:27:58.242Z,13.05
2022-08-17T04:30:29.097Z,13.23
2022-08-17T04:33:19.227Z,13.55
2022-08-17T04:35:51.938Z,13.70
2022-08-17T04:38:23.039Z,11.70
2022-08-17T04:41:10.575Z,12.50
2022-08-17T04:43:41.858Z,12.23
2022-08-17T04:46:14.836Z,12.27
2022-08-17T04:48:48.069Z,12.30
2022-08-17T04:51:19.880Z,11.93
2022-08-17T04:53:54.395Z,11.52
2022-08-17T04:56:26.149Z,11.93
2022-08-17T04:58:58.261Z,11.48
2022-08-17T05:01:30.035Z,11.80
2022-08-17T05:04:20.779Z,12.45
2022-08-17T05:06:54.877Z,11.68
2022-08-17T05:09:24.144Z,11.95
2022-08-17T05:11:55.174Z,12.10
2022-08-17T05:14:33.336Z,11.82
2022-08-17T05:17:07.063Z,11.65
2022-08-17T05:19:41.459Z,11.55
2022-08-17T05:22:10.800Z,11.30
2022-08-17T05:24:43.527Z,11.13
2022-08-17T05:27:23.478Z,10.13
2022-08-17T05:29:52.880Z,10.90
2022-08-17T05:32:38.120Z,11.10
2022-08-17T05:35:11.385Z,11.45
2022-08-17T05:37:40.817Z,9.85
2022-08-17T05:40:11.205Z,9.85
2022-08-17T05:42:40.598Z,9.90
2022-08-17T05:45:11.703Z,26.63
2022-08-17T05:47:41.825Z,10.07
2022-08-17T05:50:26.981Z,9.55
2022-08-17T05:53:04.974Z,9.43
2022-08-17T05:55:46.620Z,9.40
2022-08-17T05:58:26.609Z,8.40
2022-08-17T06:01:05.402Z,8.23
2022-08-17T06:03:50.770Z,9.13
2022-08-17T06:06:40.121Z,9.70
2022-08-17T06:09:33.026Z,9.35
2022-08-17T06:12:19.865Z,9.45
2022-08-17T06:15:05.123Z,8.77
2022-08-17T06:17:35.868Z,9.20
2022-08-17T06:20:10.909Z,8.07
2022-08-17T06:22:47.111Z,7.72
2022-08-17T06:25:20.410Z,8.32
2022-08-17T06:27:54.182Z,7.90
2022-08-17T06:30:26.230Z,8.52
2022-08-17T06:32:59.768Z,8.60
2022-08-17T06:35:39.289Z,8.20
2022-08-17T06:38:37.681Z,8.32
2022-08-17T06:41:19.288Z,8.07
2022-08-17T06:44:00.217Z,7.97
2022-08-17T06:46:37.383Z,7.57
2022-08-17T06:49:22.178Z,8.88
2022-08-17T06:51:55.260Z,7.63
2022-08-17T06:54:35.311Z,7.88
2022-08-17T06:57:14.948Z,8.07
2022-08-17T06:59:55.227Z,7.03
2022-08-17T07:03:02.681Z,7.40
2022-08-17T07:05:36.868Z,7.38
2022-08-17T07:08:17.388Z,7.82
2022-08-17T07:10:51.404Z,7.28
2022-08-17T07:13:32.919Z,7.47
2022-08-17T07:16:12.811Z,7.18
2022-08-17T07:18:44.219Z,7.35
2022-08-17T07:21:26.737Z,7.10
2022-08-17T07:24:08.909Z,7.15
2022-08-17T07:26:39.847Z,6.72
2022-08-17T07:29:12.348Z,7.13
2022-08-17T07:31:42.214Z,6.90
2022-08-17T07:34:15.009Z,7.60
2022-08-17T07:36:44.972Z,7.55
2022-08-17T07:39:20.125Z,6.78
2022-08-17T07:41:57.241Z,6.40
2022-08-17T07:44:28.845Z,6.57
2022-08-17T07:47:16.650Z,6.70
2022-08-17T07:49:47.647Z,6.68
2022-08-17T07:52:50.821Z,6.97
2022-08-17T07:55:29.628Z,7.00
2022-08-17T07:58:02.236Z,6.15
2022-08-17T08:00:33.990Z,6.70
2022-08-17T08:03:14.047Z,6.80
2022-08-17T08:05:52.509Z,6.60
2022-08-17T08:08:29.531Z,6.53
2022-08-17T08:11:09.927Z,6.90
2022-08-17T08:13:44.035Z,6.88
2022-08-17T08:16:25.952Z,6.43
2022-08-17T08:18:58.465Z,6.63
2022-08-17T08:21:36.285Z,7.25
2022-08-17T08:24:22.160Z,6.25
2022-08-17T08:27:00.254Z,6.80
2022-08-17T08:29:38.183Z,7.15
2022-08-17T08:32:16.699Z,6.15
2022-08-17T08:35:01.453Z,5.85
2022-08-17T08:37:43.699Z,6.50
2022-08-17T08:40:33.775Z,6.75
2022-08-17T08:43:10.863Z,8.48
2022-08-17T08:45:50.781Z,7.20
2022-08-17T08:48:57.061Z,6.53
2022-08-17T08:51:41.604Z,6.43
2022-08-17T08:54:26.863Z,6.00
2022-08-17T08:57:34.089Z,5.85
2022-08-17T09:00:15.731Z,6.20
2022-08-17T09:03:12.451Z,7.15
2022-08-17T09:05:59.059Z,6.07
2022-08-17T09:08:39.639Z,6.72
2022-08-17T09:11:26.831Z,7.68
2022-08-17T09:14:21.033Z,7.03
2022-08-17T09:17:03.252Z,6.20
2022-08-17T09:19:53.280Z,6.60
2022-08-17T09:22:35.413Z,6.18
2022-08-17T09:25:11.221Z,6.65
2022-08-17T09:27:52.974Z,6.35
2022-08-17T09:30:25.494Z,6.90
2022-08-17T09:33:01.129Z,8.23
2022-08-17T09:35:40.520Z,7.07
2022-08-17T09:38:32.724Z,6.50
2022-08-17T09:41:14.252Z,6.15
2022-08-17T09:43:50.972Z,7.18
2022-08-17T09:46:25.814Z,6.00
2022-08-17T09:49:03.655Z,6.20
2022-08-17T09:51:40.656Z,6.45
2022-08-17T09:54:40.189Z,6.82
2022-08-17T09:57:30.770Z,7.85
2022-08-17T10:00:13.761Z,6.95
2022-08-17T10:02:57.187Z,7.40
2022-08-17T10:05:37.921Z,6.57
2022-08-17T10:08:21.821Z,6.78
2022-08-17T10:11:07.456Z,7.05
2022-08-17T10:13:52.661Z,6.90
2022-08-17T10:16:31.892Z,7.00
2022-08-17T10:19:21.199Z,6.40
2022-08-17T10:22:12.847Z,8.07
2022-08-17T10:25:22.615Z,6.50
2022-08-17T10:27:58.393Z,6.95
2022-08-17T10:30:30.996Z,6.78
2022-08-17T10:33:02.667Z,6.80
2022-08-17T10:35:43.053Z,7.72
2022-08-17T10:38:42.925Z,6.75
2022-08-17T10:41:30.853Z,6.47
2022-08-17T10:44:40.272Z,6.85
2022-08-17T10:47:08.758Z,6.57
2022-08-17T10:49:39.625Z,7.10
2022-08-17T10:52:44.075Z,6.93
2022-08-17T10:55:18.728Z,6.72
2022-08-17T10:57:51.859Z,6.85
2022-08-17T11:01:04.206Z,6.90
2022-08-17T11:03:34.415Z,7.22
2022-08-17T11:06:18.255Z,6.55
2022-08-17T11:09:20.152Z,7.22
2022-08-17T11:12:16.698Z,6.95
2022-08-17T11:15:10.214Z,8.02
2022-08-17T11:17:54.605Z,6.93
2022-08-17T11:20:51.013Z,7.75
2022-08-17T11:23:48.305Z,6.97
2022-08-17T11:26:26.428Z,6.45
2022-08-17T11:29:00.527Z,9.25
2022-08-17T11:31:38.561Z,7.47
2022-08-17T11:34:19.366Z,7.50
2022-08-17T11:37:19.306Z,9.43
2022-08-17T11:40:25.589Z,6.85
2022-08-17T11:43:46.125Z,7.10
2022-08-17T11:46:24.589Z,6.82
2022-08-17T11:49:27.106Z,6.10
2022-08-17T11:52:15.649Z,10.65
2022-08-17T11:54:47.089Z,6.55
2022-08-17T11:58:01.329Z,6.55
2022-08-17T12:00:59.443Z,6.55
2022-08-17T12:03:54.278Z,6.88
2022-08-17T12:06:46.769Z,7.32
2022-08-17T12:09:21.060Z,6.60
2022-08-17T12:12:12.876Z,9.88
2022-08-17T12:15:09.705Z,6.82
2022-08-17T12:17:52.230Z,6.68
2022-08-17T12:20:29.889Z,7.38
2022-08-17T12:23:09.405Z,6.90
2022-08-17T12:25:44.178Z,6.88
2022-08-17T12:28:23.871Z,7.50
2022-08-17T12:30:54.569Z,6.75
2022-08-17T12:33:29.006Z,7.03
2022-08-17T12:36:03.251Z,6.72
2022-08-17T12:38:36.402Z,6.97
2022-08-17T12:41:23.065Z,6.78
2022-08-17T12:44:02.546Z,6.18
2022-08-17T12:46:36.231Z,6.40
2022-08-17T12:49:34.627Z,6.43
2022-08-17T12:52:15.371Z,7.00
2022-08-17T12:54:53.526Z,7.05
2022-08-17T12:57:27.581Z,6.85
2022-08-17T13:00:02.214Z,6.68
2022-08-17T13:02:41.035Z,6.13
2022-08-17T13:05:24.155Z,6.72
2022-08-17T13:07:56.523Z,6.70
2022-08-17T13:10:33.093Z,7.07
2022-08-17T13:13:06.243Z,6.50
2022-08-17T13:15:46.453Z,7.70
2022-08-17T13:18:39.290Z,7.35
2022-08-17T13:21:18.445Z,7.05
2022-08-17T13:23:57.935Z,7.22
2022-08-17T13:26:36.389Z,6.22
2022-08-17T13:29:10.088Z,7.47
2022-08-17T13:31:52.643Z,7.05
2022-08-17T13:35:08.319Z,7.13
2022-08-17T13:37:37.202Z,7.40
2022-08-17T13:44:04.643Z,6.47
2022-08-17T13:46:40.911Z,7.40
2022-08-17T13:49:13.404Z,7.35
2022-08-17T13:51:45.563Z,7.20
2022-08-17T13:54:26.722Z,7.70
2022-08-17T13:57:01.173Z,7.35
2022-08-17T13:59:54.728Z,8.18
2022-08-17T14:02:27.220Z,8.98
2022-08-17T14:04:59.322Z,6.50
2022-08-17T14:07:33.983Z,6.78
2022-08-17T14:10:13.261Z,7.30
2022-08-17T14:12:44.803Z,7.00
2022-08-17T14:15:20.845Z,7.00
2022-08-17T14:17:50.846Z,6.90
2022-08-17T14:20:24.863Z,7.47
2022-08-17T14:22:57.314Z,6.72
2022-08-17T14:25:29.982Z,7.18
2022-08-17T14:27:59.800Z,7.43
2022-08-17T14:30:31.102Z,7.70
2022-08-17T14:33:02.396Z,7.47
2022-08-17T14:35:31.823Z,7.18
2022-08-17T14:38:02.544Z,6.90
2022-08-17T14:40:33.763Z,7.35
2022-08-17T14:43:04.443Z,7.10
2022-08-17T14:45:35.556Z,7.05
2022-08-17T14:48:07.948Z,7.28
2022-08-17T14:50:37.842Z,7.05
2022-08-17T14:53:08.423Z,7.15
2022-08-17T14:55:40.856Z,6.72
2022-08-17T14:58:10.669Z,7.10
2022-08-17T15:00:43.899Z,7.13
2022-08-17T15:03:14.650Z,7.72
2022-08-17T15:05:50.929Z,6.75
2022-08-17T15:26:54.047Z,7.57
2022-08-17T15:29:24.197Z,7.13
2022-08-17T15:31:58.653Z,7.05
2022-08-17T15:34:30.504Z,6.30
2022-08-17T15:37:00.253Z,6.65
2022-08-17T15:39:29.961Z,6.82
2022-08-17T15:42:05.001Z,6.57
2022-08-17T15:44:35.142Z,6.75
2022-08-17T15:47:24.334Z,6.97
2022-08-17T15:50:20.590Z,6.70
2022-08-17T15:52:58.227Z,7.20
2022-08-17T15:55:29.625Z,6.85
2022-08-17T15:58:03.506Z,6.85
2022-08-17T16:00:35.471Z,7.20
2022-08-17T16:03:58.236Z,7.55
2022-08-17T16:06:13.891Z,7.43
2022-08-17T16:08:45.536Z,7.82
2022-08-17T16:11:19.423Z,7.13
2022-08-17T16:13:55.012Z,8.13
2022-08-17T16:16:26.522Z,7.55
2022-08-17T16:18:59.127Z,7.78
2022-08-17T16:21:42.438Z,8.57
2022-08-17T16:24:14.980Z,8.00
2022-08-17T16:26:44.812Z,8.10
2022-08-17T16:29:18.704Z,8.77
2022-08-17T16:31:48.550Z,8.38
2022-08-17T16:34:27.100Z,8.32
2022-08-17T16:36:57.322Z,9.38
2022-08-17T16:39:29.463Z,9.13
2022-08-17T16:42:00.835Z,9.05
2022-08-17T16:44:32.505Z,8.73
2022-08-17T16:47:02.465Z,8.93
2022-08-17T16:49:36.620Z,9.05
2022-08-17T16:52:10.727Z,9.07
2022-08-17T16:54:44.232Z,8.90
2022-08-17T16:57:14.878Z,9.13
2022-08-17T16:59:50.554Z,8.88
2022-08-17T17:02:29.196Z,9.07
2022-08-17T17:05:04.873Z,10.23
2022-08-17T17:08:08.233Z,9.63
2022-08-17T17:10:43.793Z,9.05
2022-08-17T17:13:17.451Z,9.38
2022-08-17T17:15:56.034Z,9.90
2022-08-17T17:18:38.033Z,9.18
2022-08-17T17:21:11.393Z,10.20
2022-08-17T17:23:49.961Z,9.38
2022-08-17T17:26:36.673Z,10.00
2022-08-17T17:29:21.593Z,10.85
2022-08-17T17:32:09.874Z,10.10
2022-08-17T17:34:49.154Z,13.85
2022-08-17T17:37:30.872Z,16.08
2022-08-17T17:40:06.993Z,14.52
2022-08-17T17:42:41.237Z,13.18
2022-08-17T17:45:18.033Z,12.73
2022-08-17T17:47:49.854Z,13.48
2022-08-17T17:50:21.355Z,10.95
2022-08-17T17:53:02.465Z,11.27
2022-08-17T17:55:46.834Z,11.38
2022-08-17T17:58:29.074Z,11.75
2022-08-17T18:01:18.713Z,11.25
2022-08-17T18:04:20.665Z,11.18
2022-08-17T18:07:09.982Z,10.82
2022-08-17T18:10:05.785Z,11.65
2022-08-17T18:12:56.838Z,11.50
2022-08-17T18:15:31.786Z,12.00
2022-08-17T18:18:26.584Z,11.80
2022-08-17T18:21:06.825Z,11.52
2022-08-17T18:23:36.554Z,11.98
2022-08-17T18:26:06.586Z,12.23
2022-08-17T18:28:40.510Z,12.25
2022-08-17T18:31:18.113Z,11.02
2022-08-17T18:33:50.505Z,13.77
2022-08-17T18:36:30.825Z,12.73
2022-08-17T18:39:13.553Z,13.20
2022-08-17T18:41:44.675Z,11.98
2022-08-17T18:44:26.475Z,14.40
2022-08-17T19:11:59.236Z,12.80
2022-08-17T19:14:32.277Z,12.38
2022-08-17T19:17:09.518Z,13.27
2022-08-17T19:19:52.714Z,12.93
2022-08-17T19:22:31.314Z,12.60
2022-08-17T19:25:16.123Z,12.98
2022-08-17T19:27:57.197Z,14.00
2022-08-17T19:30:29.714Z,13.90
2022-08-17T19:33:00.953Z,13.10
2022-08-17T19:35:44.185Z,13.80
2022-08-17T19:38:26.603Z,14.32
2022-08-17T19:41:07.280Z,14.30
2022-08-17T19:44:08.510Z,14.00
2022-08-17T19:46:49.871Z,13.50
2022-08-17T19:49:33.423Z,14.27
2022-08-17T19:52:32.201Z,13.80
2022-08-17T19:55:07.923Z,14.50
2022-08-17T19:57:47.483Z,13.93
2022-08-17T20:00:18.959Z,13.82
2022-08-17T20:03:46.144Z,14.23
2022-08-17T20:06:17.880Z,14.93
2022-08-17T20:08:57.394Z,14.80
2022-08-17T20:11:41.559Z,14.05
2022-08-17T20:14:16.499Z,15.18
2022-08-17T20:16:48.998Z,15.93
2022-08-17T20:19:34.496Z,14.48
2022-08-17T20:22:12.692Z,16.00
2022-08-17T20:24:49.974Z,15.38
2022-08-17T20:27:31.273Z,14.40
2022-08-17T20:30:34.093Z,16.13
2022-08-17T20:33:08.627Z,15.27
2022-08-17T20:36:04.052Z,15.73
2022-08-17T20:38:47.995Z,15.32
2022-08-17T20:41:22.352Z,15.23
2022-08-17T20:44:06.814Z,14.75
2022-08-17T20:46:57.392Z,15.55
2022-08-17T20:49:32.363Z,15.02
2022-08-17T20:52:09.169Z,15.60
2022-08-17T20:54:51.519Z,15.70
2022-08-17T20:57:51.372Z,15.90
2022-08-17T21:00:44.075Z,15.77
2022-08-17T21:03:51.094Z,16.10
2022-08-17T21:06:26.595Z,15.82
2022-08-17T21:13:50.761Z,15.10
2022-08-17T21:16:46.439Z,15.32
2022-08-17T21:19:24.800Z,16.08
2022-08-17T21:22:06.686Z,14.75
2022-08-17T21:24:47.229Z,17.02
2022-08-17T21:27:32.170Z,16.15
2022-08-17T21:30:44.488Z,16.45
2022-08-17T21:33:25.269Z,15.45
2022-08-17T21:36:16.823Z,15.48
2022-08-17T21:38:58.063Z,16.02
2022-08-17T21:41:32.304Z,16.52
2022-08-17T21:44:07.708Z,16.58
2022-08-17T21:46:46.573Z,17.67
2022-08-17T21:49:22.397Z,18.17
2022-08-17T21:51:56.513Z,18.10
2022-08-17T21:54:34.390Z,17.50
2022-08-17T21:57:07.389Z,17.27
2022-08-17T21:59:40.220Z,17.77
2022-08-17T22:02:21.439Z,17.90
2022-08-17T22:05:02.084Z,17.30
2022-08-17T22:07:41.124Z,17.92
2022-08-17T22:10:30.870Z,16.83
2022-08-17T22:13:23.483Z,18.17
2022-08-17T22:16:29.067Z,17.25
2022-08-17T22:19:01.456Z,16.88
2022-08-17T22:21:31.044Z,16.85
2022-08-17T22:24:06.924Z,16.92
2022-08-17T22:27:03.614Z,18.10
2022-08-17T22:29:57.672Z,16.95
2022-08-17T22:32:36.690Z,16.27
2022-08-17T22:35:35.540Z,16.73
2022-08-17T22:38:31.475Z,17.48
2022-08-17T22:41:32.283Z,17.67
2022-08-17T22:44:26.163Z,17.70
2022-08-17T22:47:00.364Z,18.23
2022-08-17T22:49:33.763Z,19.02
2022-08-17T22:52:20.049Z,19.33
2022-08-17T22:55:09.347Z,20.02
2022-08-17T22:58:02.808Z,19.25
2022-08-17T23:00:40.476Z,18.35
2022-08-17T23:03:15.709Z,19.70
2022-08-17T23:05:48.116Z,18.73
2022-08-17T23:08:21.525Z,18.95
2022-08-17T23:10:51.740Z,18.88
2022-08-17T23:13:21.604Z,18.40
2022-08-17T23:15:52.748Z,18.65
2022-08-17T23:18:23.684Z,18.33
2022-08-17T23:20:52.944Z,17.95
2022-08-17T23:23:24.027Z,18.95
2022-08-17T23:25:54.678Z,19.10
2022-08-17T23:28:23.946Z,17.90
2022-08-17T23:30:53.278Z,17.40
2022-08-17T23:33:26.955Z,19.10
2022-08-17T23:35:56.233Z,18.05
2022-08-17T23:38:27.400Z,18.27
2022-08-17T23:40:57.406Z,17.90
2022-08-17T23:43:28.204Z,19.10
2022-08-17T23:45:59.919Z,18.45
2022-08-17T23:48:35.956Z,17.38
2022-08-17T23:51:11.012Z,18.55
2022-08-17T23:53:46.927Z,17.48
2022-08-17T23:56:18.859Z,18.65
2022-08-17T23:58:48.002Z,18.20
